Aérodrome :
LOGIN :

S'inscrire | Disclaimer

   EN    FR    IT 

 










Légende :    VFR   VFR Marginal   IFR   IFR Intensif   IFR Très Intensif
Visi : 
Plafond : 
>= 8 km
>= 3000ft
5 à 8 km
1000 à 3000 ft
1500m à 5 km
500 à 1000 ft
800 à 1500m
200 à 500 ft
< 800m
< 200 ft
Symboles :   Orages  Brouillard  Fortes neiges  Fortes précipitations  Vent > 20 kt
SIGMETs :   Divers  Orages  Givrage  Turbulence  Onde Orograph.  Cendres Volcan.






- Altitude de l'aérodrome : 1325 ft
- Code IATA : EBU


LFMH - St-Etienne Boutheon

DERNIER METAR :
  • 200630Z AUTO 17003KT 9999 OVC036 01/M00 Q1013 TEMPO 1500 BR

METARs EXPIRÉS :
  • 200600Z AUTO 15003KT 9999 BKN035 M00/M01 Q1013 TEMPO 1500 BR
  • 200530Z AUTO 13003KT 9999 FEW035 00/M00 Q1013 TEMPO 1500 BR
  • 200500Z AUTO VRB02KT 9000 SCT035 M00/M01 Q1014 TEMPO 1500 BR
  • 200430Z AUTO 17003KT CAVOK 01/M00 Q1014 TEMPO 1500 BR
  • 200400Z AUTO 20002KT 9999 FEW025 02/01 Q1014 TEMPO 1500 BR

TAF TAF LFMH
Valide du 20 à 03h jusqu'au 21 à 03h UTC


200200Z 2003/2103 VRB02KT 9999 OVC025
PROB30 2003/2008 1500 BR
BECMG 2008/2011 CAVOK
TEMPO 2010/2103 16010KT BKN050
ATIS : +33 4 77 36 17 51



MET'MAP, la Météo Aéronautique d'un coup d'oeil ! - Copyright ORBIFLY Décembre 2007 - Disclaimer

ORBIFLY MET'MAP TEAM :

Programmation & Développement : Alexandra Zaïnal
Conception & Développement : Baudouin d'Aumeries
Co-Programmation & Développement : Marc-Olivier Méhu
Soutien technique & logistique : Manuel Goepfert

Contact : metmap@orbifly.com




SOURCES & CREDITS :

   NOAA